sensor_id;sensor_type;location;lat;lon;timestamp;P1;durP1;ratioP1;P2;durP2;ratioP2
34369;SDS011;20635;55.812;37.560;2023-02-28T00:01:24;1.88;;;1.67;;
34369;SDS011;20635;55.812;37.560;2023-02-28T00:03:50;2.08;;;1.80;;
34369;SDS011;20635;55.812;37.560;2023-02-28T00:06:16;1.88;;;1.70;;
34369;SDS011;20635;55.812;37.560;2023-02-28T00:08:42;2.42;;;2.20;;
34369;SDS011;20635;55.812;37.560;2023-02-28T00:11:09;1.88;;;1.70;;
34369;SDS011;20635;55.812;37.560;2023-02-28T00:13:38;1.83;;;1.73;;
34369;SDS011;20635;55.812;37.560;2023-02-28T00:16:08;2.13;;;1.92;;
34369;SDS011;20635;55.812;37.560;2023-02-28T00:18:36;2.63;;;2.00;;
34369;SDS011;20635;55.812;37.560;2023-02-28T00:21:02;1.90;;;1.80;;
34369;SDS011;20635;55.812;37.560;2023-02-28T00:23:28;2.25;;;2.05;;
34369;SDS011;20635;55.812;37.560;2023-02-28T00:25:54;2.90;;;1.90;;
34369;SDS011;20635;55.812;37.560;2023-02-28T00:28:21;5.70;;;2.03;;
34369;SDS011;20635;55.812;37.560;2023-02-28T00:30:47;1.70;;;1.60;;
34369;SDS011;20635;55.812;37.560;2023-02-28T00:33:13;2.00;;;1.77;;
34369;SDS011;20635;55.812;37.560;2023-02-28T00:35:39;2.15;;;1.65;;
34369;SDS011;20635;55.812;37.560;2023-02-28T00:38:04;2.40;;;1.70;;
34369;SDS011;20635;55.812;37.560;2023-02-28T00:40:31;1.90;;;1.80;;
34369;SDS011;20635;55.812;37.560;2023-02-28T00:42:57;4.40;;;2.15;;
34369;SDS011;20635;55.812;37.560;2023-02-28T00:45:23;2.42;;;1.73;;
34369;SDS011;20635;55.812;37.560;2023-02-28T00:47:48;2.08;;;1.88;;
34369;SDS011;20635;55.812;37.560;2023-02-28T00:50:17;2.20;;;2.00;;
34369;SDS011;20635;55.812;37.560;2023-02-28T00:52:47;2.47;;;1.98;;
34369;SDS011;20635;55.812;37.560;2023-02-28T00:55:13;2.00;;;1.80;;
34369;SDS011;20635;55.812;37.560;2023-02-28T00:57:40;1.90;;;1.70;;
34369;SDS011;20635;55.812;37.560;2023-02-28T01:00:06;1.95;;;1.83;;
34369;SDS011;20635;55.812;37.560;2023-02-28T01:02:32;1.92;;;1.80;;
34369;SDS011;20635;55.812;37.560;2023-02-28T01:04:59;2.88;;;1.88;;
34369;SDS011;20635;55.812;37.560;2023-02-28T01:07:25;1.80;;;1.70;;
34369;SDS011;20635;55.812;37.560;2023-02-28T01:09:50;1.75;;;1.65;;
34369;SDS011;20635;55.812;37.560;2023-02-28T01:12:16;2.28;;;2.08;;
34369;SDS011;20635;55.812;37.560;2023-02-28T01:14:42;2.13;;;1.70;;
34369;SDS011;20635;55.812;37.560;2023-02-28T01:17:08;1.70;;;1.60;;
34369;SDS011;20635;55.812;37.560;2023-02-28T01:19:34;2.63;;;2.42;;
34369;SDS011;20635;55.812;37.560;2023-02-28T01:22:02;2.22;;;1.90;;
34369;SDS011;20635;55.812;37.560;2023-02-28T01:24:30;2.00;;;1.90;;
34369;SDS011;20635;55.812;37.560;2023-02-28T01:26:56;2.45;;;1.73;;
34369;SDS011;20635;55.812;37.560;2023-02-28T01:29:22;1.90;;;1.80;;
34369;SDS011;20635;55.812;37.560;2023-02-28T01:31:48;1.88;;;1.75;;
34369;SDS011;20635;55.812;37.560;2023-02-28T01:34:14;1.73;;;1.63;;
34369;SDS011;20635;55.812;37.560;2023-02-28T01:36:40;1.80;;;1.70;;
34369;SDS011;20635;55.812;37.560;2023-02-28T01:39:06;3.58;;;2.15;;
34369;SDS011;20635;55.812;37.560;2023-02-28T01:41:32;8.35;;;2.10;;
34369;SDS011;20635;55.812;37.560;2023-02-28T01:44:01;3.85;;;1.65;;
34369;SDS011;20635;55.812;37.560;2023-02-28T01:46:34;2.42;;;1.83;;
34369;SDS011;20635;55.812;37.560;2023-02-28T01:49:05;2.17;;;1.98;;
34369;SDS011;20635;55.812;37.560;2023-02-28T01:54:12;1.63;;;1.52;;
34369;SDS011;20635;55.812;37.560;2023-02-28T01:56:43;2.22;;;2.03;;
34369;SDS011;20635;55.812;37.560;2023-02-28T01:59:14;2.13;;;1.92;;
34369;SDS011;20635;55.812;37.560;2023-02-28T02:01:47;2.17;;;1.60;;
34369;SDS011;20635;55.812;37.560;2023-02-28T02:04:13;2.03;;;1.80;;
34369;SDS011;20635;55.812;37.560;2023-02-28T02:06:42;1.60;;;1.50;;
34369;SDS011;20635;55.812;37.560;2023-02-28T02:09:11;1.95;;;1.80;;
34369;SDS011;20635;55.812;37.560;2023-02-28T02:11:39;2.08;;;1.70;;
34369;SDS011;20635;55.812;37.560;2023-02-28T02:25:39;2.03;;;1.83;;
34369;SDS011;20635;55.812;37.560;2023-02-28T02:28:28;1.50;;;1.40;;
34369;SDS011;20635;55.812;37.560;2023-02-28T02:36:48;1.58;;;1.48;;
34369;SDS011;20635;55.812;37.560;2023-02-28T02:39:30;2.15;;;1.95;;
34369;SDS011;20635;55.812;37.560;2023-02-28T02:42:11;1.52;;;1.42;;
34369;SDS011;20635;55.812;37.560;2023-02-28T02:44:50;1.88;;;1.67;;
34369;SDS011;20635;55.812;37.560;2023-02-28T02:47:30;1.88;;;1.77;;
34369;SDS011;20635;55.812;37.560;2023-02-28T02:50:00;1.70;;;1.60;;
34369;SDS011;20635;55.812;37.560;2023-02-28T02:52:40;1.50;;;1.40;;
34369;SDS011;20635;55.812;37.560;2023-02-28T02:55:11;1.77;;;1.67;;
34369;SDS011;20635;55.812;37.560;2023-02-28T02:57:42;1.73;;;1.63;;
34369;SDS011;20635;55.812;37.560;2023-02-28T03:00:13;1.60;;;1.45;;
34369;SDS011;20635;55.812;37.560;2023-02-28T03:02:45;1.85;;;1.63;;
34369;SDS011;20635;55.812;37.560;2023-02-28T03:05:21;1.55;;;1.45;;
34369;SDS011;20635;55.812;37.560;2023-02-28T03:07:51;1.58;;;1.48;;
34369;SDS011;20635;55.812;37.560;2023-02-28T03:27:05;2.05;;;1.85;;
34369;SDS011;20635;55.812;37.560;2023-02-28T03:29:42;1.90;;;1.80;;
34369;SDS011;20635;55.812;37.560;2023-02-28T03:32:16;1.60;;;1.50;;
34369;SDS011;20635;55.812;37.560;2023-02-28T03:35:32;1.80;;;1.70;;
34369;SDS011;20635;55.812;37.560;2023-02-28T03:37:48;1.80;;;1.50;;
34369;SDS011;20635;55.812;37.560;2023-02-28T03:40:19;1.60;;;1.50;;
34369;SDS011;20635;55.812;37.560;2023-02-28T03:42:49;1.80;;;1.70;;
34369;SDS011;20635;55.812;37.560;2023-02-28T03:45:20;2.10;;;1.73;;
34369;SDS011;20635;55.812;37.560;2023-02-28T03:52:50;2.13;;;1.70;;
34369;SDS011;20635;55.812;37.560;2023-02-28T03:55:20;1.75;;;1.65;;
34369;SDS011;20635;55.812;37.560;2023-02-28T03:57:56;2.45;;;1.83;;
34369;SDS011;20635;55.812;37.560;2023-02-28T04:00:46;1.85;;;1.70;;
34369;SDS011;20635;55.812;37.560;2023-02-28T04:03:18;1.80;;;1.70;;
34369;SDS011;20635;55.812;37.560;2023-02-28T04:05:48;2.00;;;1.83;;
34369;SDS011;20635;55.812;37.560;2023-02-28T04:08:17;1.70;;;1.60;;
34369;SDS011;20635;55.812;37.560;2023-02-28T04:10:43;2.33;;;1.95;;
34369;SDS011;20635;55.812;37.560;2023-02-28T04:13:13;1.90;;;1.75;;
34369;SDS011;20635;55.812;37.560;2023-02-28T04:15:39;2.42;;;1.83;;
34369;SDS011;20635;55.812;37.560;2023-02-28T04:18:05;1.98;;;1.77;;
34369;SDS011;20635;55.812;37.560;2023-02-28T04:20:31;2.30;;;2.10;;
34369;SDS011;20635;55.812;37.560;2023-02-28T04:22:57;1.90;;;1.77;;
34369;SDS011;20635;55.812;37.560;2023-02-28T04:25:23;2.22;;;2.00;;
34369;SDS011;20635;55.812;37.560;2023-02-28T04:27:49;2.83;;;2.13;;
34369;SDS011;20635;55.812;37.560;2023-02-28T04:30:14;1.88;;;1.67;;
34369;SDS011;20635;55.812;37.560;2023-02-28T04:32:40;2.10;;;1.90;;
34369;SDS011;20635;55.812;37.560;2023-02-28T04:35:06;1.85;;;1.75;;
34369;SDS011;20635;55.812;37.560;2023-02-28T04:37:33;2.13;;;1.92;;
34369;SDS011;20635;55.812;37.560;2023-02-28T04:40:00;1.77;;;1.60;;
34369;SDS011;20635;55.812;37.560;2023-02-28T04:42:26;2.17;;;1.98;;
34369;SDS011;20635;55.812;37.560;2023-02-28T04:44:52;1.83;;;1.73;;
34369;SDS011;20635;55.812;37.560;2023-02-28T04:47:18;2.13;;;1.92;;
34369;SDS011;20635;55.812;37.560;2023-02-28T04:49:44;1.90;;;1.80;;
34369;SDS011;20635;55.812;37.560;2023-02-28T04:52:10;2.72;;;2.03;;
34369;SDS011;20635;55.812;37.560;2023-02-28T04:54:36;3.53;;;1.90;;
34369;SDS011;20635;55.812;37.560;2023-02-28T04:57:04;3.75;;;1.90;;
34369;SDS011;20635;55.812;37.560;2023-02-28T04:59:30;2.15;;;1.73;;
34369;SDS011;20635;55.812;37.560;2023-02-28T05:01:56;5.68;;;1.63;;
34369;SDS011;20635;55.812;37.560;2023-02-28T05:04:21;1.80;;;1.70;;
34369;SDS011;20635;55.812;37.560;2023-02-28T05:06:47;2.35;;;1.63;;
34369;SDS011;20635;55.812;37.560;2023-02-28T05:09:13;2.00;;;1.80;;
34369;SDS011;20635;55.812;37.560;2023-02-28T05:11:39;2.10;;;1.65;;
34369;SDS011;20635;55.812;37.560;2023-02-28T05:14:10;1.83;;;1.52;;
34369;SDS011;20635;55.812;37.560;2023-02-28T05:16:37;1.70;;;1.60;;
34369;SDS011;20635;55.812;37.560;2023-02-28T05:19:03;2.00;;;1.80;;
34369;SDS011;20635;55.812;37.560;2023-02-28T05:23:56;2.08;;;1.90;;
34369;SDS011;20635;55.812;37.560;2023-02-28T05:26:24;1.80;;;1.70;;
34369;SDS011;20635;55.812;37.560;2023-02-28T05:28:50;1.60;;;1.50;;
34369;SDS011;20635;55.812;37.560;2023-02-28T05:31:17;2.03;;;1.83;;
34369;SDS011;20635;55.812;37.560;2023-02-28T05:33:43;1.73;;;1.63;;
34369;SDS011;20635;55.812;37.560;2023-02-28T05:36:09;1.90;;;1.67;;
34369;SDS011;20635;55.812;37.560;2023-02-28T05:38:35;2.15;;;1.95;;
34369;SDS011;20635;55.812;37.560;2023-02-28T05:41:04;1.63;;;1.52;;
34369;SDS011;20635;55.812;37.560;2023-02-28T05:43:32;1.52;;;1.35;;
34369;SDS011;20635;55.812;37.560;2023-02-28T05:45:57;1.60;;;1.50;;
34369;SDS011;20635;55.812;37.560;2023-02-28T05:48:23;1.52;;;1.42;;
34369;SDS011;20635;55.812;37.560;2023-02-28T05:50:51;2.35;;;1.92;;
34369;SDS011;20635;55.812;37.560;2023-02-28T05:53:17;1.98;;;1.50;;
34369;SDS011;20635;55.812;37.560;2023-02-28T05:55:43;1.55;;;1.45;;
34369;SDS011;20635;55.812;37.560;2023-02-28T05:58:08;1.80;;;1.63;;
34369;SDS011;20635;55.812;37.560;2023-02-28T06:00:34;3.22;;;2.15;;
34369;SDS011;20635;55.812;37.560;2023-02-28T06:03:00;1.70;;;1.60;;
34369;SDS011;20635;55.812;37.560;2023-02-28T06:05:27;1.63;;;1.40;;
34369;SDS011;20635;55.812;37.560;2023-02-28T06:07:53;2.08;;;1.88;;
34369;SDS011;20635;55.812;37.560;2023-02-28T06:10:19;2.78;;;1.77;;
34369;SDS011;20635;55.812;37.560;2023-02-28T06:12:45;2.10;;;1.90;;
34369;SDS011;20635;55.812;37.560;2023-02-28T06:15:14;3.53;;;1.65;;
34369;SDS011;20635;55.812;37.560;2023-02-28T06:17:43;3.83;;;1.20;;
34369;SDS011;20635;55.812;37.560;2023-02-28T06:20:10;1.65;;;1.40;;
34369;SDS011;20635;55.812;37.560;2023-02-28T06:22:38;1.60;;;1.50;;
34369;SDS011;20635;55.812;37.560;2023-02-28T06:25:05;4.10;;;1.58;;
34369;SDS011;20635;55.812;37.560;2023-02-28T06:27:32;1.52;;;1.33;;
34369;SDS011;20635;55.812;37.560;2023-02-28T06:29:59;2.08;;;1.40;;
34369;SDS011;20635;55.812;37.560;2023-02-28T06:32:25;4.15;;;1.83;;
34369;SDS011;20635;55.812;37.560;2023-02-28T06:34:51;3.22;;;1.88;;
34369;SDS011;20635;55.812;37.560;2023-02-28T06:37:17;3.83;;;1.67;;
34369;SDS011;20635;55.812;37.560;2023-02-28T06:39:43;1.92;;;1.38;;
34369;SDS011;20635;55.812;37.560;2023-02-28T06:42:09;4.60;;;1.60;;
34369;SDS011;20635;55.812;37.560;2023-02-28T06:44:35;3.58;;;1.55;;
34369;SDS011;20635;55.812;37.560;2023-02-28T06:47:02;4.47;;;1.52;;
34369;SDS011;20635;55.812;37.560;2023-02-28T06:49:30;2.28;;;1.30;;
34369;SDS011;20635;55.812;37.560;2023-02-28T06:51:57;2.08;;;1.30;;
34369;SDS011;20635;55.812;37.560;2023-02-28T06:54:22;1.55;;;1.42;;
34369;SDS011;20635;55.812;37.560;2023-02-28T06:56:49;1.75;;;1.30;;
34369;SDS011;20635;55.812;37.560;2023-02-28T06:59:15;1.52;;;1.40;;
34369;SDS011;20635;55.812;37.560;2023-02-28T07:01:41;2.50;;;1.30;;
34369;SDS011;20635;55.812;37.560;2023-02-28T07:04:07;1.50;;;1.40;;
34369;SDS011;20635;55.812;37.560;2023-02-28T07:06:33;1.45;;;1.35;;
34369;SDS011;20635;55.812;37.560;2023-02-28T07:08:59;1.83;;;1.63;;
34369;SDS011;20635;55.812;37.560;2023-02-28T07:11:26;1.27;;;1.15;;
34369;SDS011;20635;55.812;37.560;2023-02-28T07:13:56;1.30;;;1.20;;
34369;SDS011;20635;55.812;37.560;2023-02-28T07:16:22;2.30;;;1.50;;
34369;SDS011;20635;55.812;37.560;2023-02-28T07:18:51;1.42;;;1.30;;
34369;SDS011;20635;55.812;37.560;2023-02-28T07:21:18;4.53;;;1.88;;
34369;SDS011;20635;55.812;37.560;2023-02-28T07:23:44;15.75;;;1.60;;
34369;SDS011;20635;55.812;37.560;2023-02-28T07:26:14;7.32;;;1.50;;
34369;SDS011;20635;55.812;37.560;2023-02-28T07:28:42;1.52;;;1.30;;
34369;SDS011;20635;55.812;37.560;2023-02-28T07:31:10;1.38;;;1.27;;
34369;SDS011;20635;55.812;37.560;2023-02-28T07:33:37;1.70;;;1.50;;
34369;SDS011;20635;55.812;37.560;2023-02-28T07:36:04;2.33;;;1.63;;
34369;SDS011;20635;55.812;37.560;2023-02-28T07:38:39;2.00;;;1.80;;
34369;SDS011;20635;55.812;37.560;2023-02-28T07:41:05;2.38;;;1.48;;
34369;SDS011;20635;55.812;37.560;2023-02-28T07:43:31;1.90;;;1.20;;
34369;SDS011;20635;55.812;37.560;2023-02-28T07:46:08;2.03;;;1.63;;
34369;SDS011;20635;55.812;37.560;2023-02-28T07:48:36;3.10;;;1.55;;
34369;SDS011;20635;55.812;37.560;2023-02-28T07:51:02;6.03;;;1.60;;
34369;SDS011;20635;55.812;37.560;2023-02-28T07:53:28;2.22;;;1.50;;
34369;SDS011;20635;55.812;37.560;2023-02-28T07:55:55;1.50;;;1.40;;
34369;SDS011;20635;55.812;37.560;2023-02-28T07:58:22;1.85;;;1.65;;
34369;SDS011;20635;55.812;37.560;2023-02-28T08:00:49;1.85;;;1.30;;
34369;SDS011;20635;55.812;37.560;2023-02-28T08:03:16;2.53;;;1.42;;
34369;SDS011;20635;55.812;37.560;2023-02-28T08:05:46;1.70;;;1.60;;
34369;SDS011;20635;55.812;37.560;2023-02-28T08:08:13;7.18;;;1.67;;
34369;SDS011;20635;55.812;37.560;2023-02-28T08:10:39;2.47;;;1.50;;
34369;SDS011;20635;55.812;37.560;2023-02-28T08:13:05;2.15;;;1.38;;
34369;SDS011;20635;55.812;37.560;2023-02-28T08:15:32;2.08;;;1.60;;
34369;SDS011;20635;55.812;37.560;2023-02-28T08:17:57;1.40;;;1.20;;
34369;SDS011;20635;55.812;37.560;2023-02-28T08:20:24;3.97;;;1.55;;
34369;SDS011;20635;55.812;37.560;2023-02-28T08:22:50;1.65;;;1.27;;
34369;SDS011;20635;55.812;37.560;2023-02-28T08:25:16;1.40;;;1.30;;
34369;SDS011;20635;55.812;37.560;2023-02-28T08:27:43;2.63;;;1.48;;
34369;SDS011;20635;55.812;37.560;2023-02-28T08:30:12;1.63;;;1.33;;
34369;SDS011;20635;55.812;37.560;2023-02-28T08:32:39;1.40;;;1.30;;
34369;SDS011;20635;55.812;37.560;2023-02-28T08:35:06;1.23;;;1.13;;
34369;SDS011;20635;55.812;37.560;2023-02-28T08:37:34;1.95;;;1.00;;
34369;SDS011;20635;55.812;37.560;2023-02-28T08:40:02;1.42;;;1.33;;
34369;SDS011;20635;55.812;37.560;2023-02-28T08:42:29;1.42;;;1.30;;
34369;SDS011;20635;55.812;37.560;2023-02-28T08:44:55;2.05;;;1.13;;
34369;SDS011;20635;55.812;37.560;2023-02-28T08:47:21;1.75;;;1.38;;
34369;SDS011;20635;55.812;37.560;2023-02-28T08:49:47;2.08;;;1.25;;
34369;SDS011;20635;55.812;37.560;2023-02-28T08:52:13;2.35;;;1.35;;
34369;SDS011;20635;55.812;37.560;2023-02-28T08:54:39;1.38;;;1.27;;
34369;SDS011;20635;55.812;37.560;2023-02-28T08:57:06;2.92;;;1.00;;
34369;SDS011;20635;55.812;37.560;2023-02-28T08:59:34;1.70;;;1.33;;
34369;SDS011;20635;55.812;37.560;2023-02-28T09:02:00;1.67;;;1.40;;
34369;SDS011;20635;55.812;37.560;2023-02-28T09:04:26;1.70;;;1.30;;
34369;SDS011;20635;55.812;37.560;2023-02-28T09:06:52;3.75;;;1.30;;
34369;SDS011;20635;55.812;37.560;2023-02-28T09:09:18;1.70;;;1.20;;
34369;SDS011;20635;55.812;37.560;2023-02-28T09:11:44;1.77;;;1.33;;
34369;SDS011;20635;55.812;37.560;2023-02-28T09:14:09;1.55;;;1.25;;
34369;SDS011;20635;55.812;37.560;2023-02-28T09:16:35;1.48;;;1.10;;
34369;SDS011;20635;55.812;37.560;2023-02-28T09:19:01;3.60;;;1.30;;
34369;SDS011;20635;55.812;37.560;2023-02-28T09:21:27;1.30;;;1.08;;
34369;SDS011;20635;55.812;37.560;2023-02-28T09:23:53;1.42;;;1.20;;
34369;SDS011;20635;55.812;37.560;2023-02-28T09:26:23;1.77;;;1.13;;
34369;SDS011;20635;55.812;37.560;2023-02-28T09:28:51;3.00;;;1.10;;
34369;SDS011;20635;55.812;37.560;2023-02-28T09:31:20;1.40;;;1.10;;
34369;SDS011;20635;55.812;37.560;2023-02-28T09:33:52;1.95;;;1.10;;
34369;SDS011;20635;55.812;37.560;2023-02-28T09:36:19;2.45;;;1.27;;
34369;SDS011;20635;55.812;37.560;2023-02-28T09:38:46;1.13;;;1.00;;
34369;SDS011;20635;55.812;37.560;2023-02-28T09:41:17;15.85;;;1.83;;
34369;SDS011;20635;55.812;37.560;2023-02-28T09:43:50;9.00;;;1.30;;
34369;SDS011;20635;55.812;37.560;2023-02-28T09:46:28;4.43;;;1.30;;
34369;SDS011;20635;55.812;37.560;2023-02-28T09:49:17;2.72;;;1.10;;
34369;SDS011;20635;55.812;37.560;2023-02-28T09:52:09;6.05;;;1.70;;
34369;SDS011;20635;55.812;37.560;2023-02-28T09:54:39;9.68;;;1.17;;
34369;SDS011;20635;55.812;37.560;2023-02-28T09:57:07;3.72;;;1.20;;
34369;SDS011;20635;55.812;37.560;2023-02-28T10:05:17;16.70;;;1.90;;
34369;SDS011;20635;55.812;37.560;2023-02-28T10:13:17;1.15;;;0.85;;
34369;SDS011;20635;55.812;37.560;2023-02-28T10:16:01;7.70;;;1.02;;
34369;SDS011;20635;55.812;37.560;2023-02-28T10:18:46;5.03;;;1.10;;
34369;SDS011;20635;55.812;37.560;2023-02-28T10:23:46;4.90;;;1.30;;
34369;SDS011;20635;55.812;37.560;2023-02-28T10:26:14;2.05;;;0.90;;
34369;SDS011;20635;55.812;37.560;2023-02-28T10:28:42;1.92;;;0.90;;
34369;SDS011;20635;55.812;37.560;2023-02-28T10:31:11;6.90;;;1.40;;
34369;SDS011;20635;55.812;37.560;2023-02-28T10:33:43;4.18;;;1.13;;
34369;SDS011;20635;55.812;37.560;2023-02-28T10:36:12;3.97;;;0.82;;
34369;SDS011;20635;55.812;37.560;2023-02-28T10:38:40;4.30;;;0.90;;
34369;SDS011;20635;55.812;37.560;2023-02-28T10:43:37;1.45;;;0.90;;
34369;SDS011;20635;55.812;37.560;2023-02-28T10:48:34;2.75;;;1.05;;
34369;SDS011;20635;55.812;37.560;2023-02-28T10:51:04;3.55;;;0.80;;
34369;SDS011;20635;55.812;37.560;2023-02-28T11:01:18;2.38;;;0.82;;
34369;SDS011;20635;55.812;37.560;2023-02-28T11:03:47;4.50;;;1.02;;
34369;SDS011;20635;55.812;37.560;2023-02-28T11:06:19;1.15;;;1.05;;
34369;SDS011;20635;55.812;37.560;2023-02-28T11:08:52;2.55;;;1.00;;
34369;SDS011;20635;55.812;37.560;2023-02-28T11:11:20;0.70;;;0.70;;
34369;SDS011;20635;55.812;37.560;2023-02-28T11:13:50;1.50;;;1.35;;
34369;SDS011;20635;55.812;37.560;2023-02-28T11:16:19;1.88;;;0.93;;
34369;SDS011;20635;55.812;37.560;2023-02-28T11:18:49;4.93;;;0.85;;
34369;SDS011;20635;55.812;37.560;2023-02-28T11:21:40;0.90;;;0.90;;
34369;SDS011;20635;55.812;37.560;2023-02-28T11:26:41;2.50;;;1.00;;
34369;SDS011;20635;55.812;37.560;2023-02-28T11:29:20;1.30;;;1.10;;
34369;SDS011;20635;55.812;37.560;2023-02-28T11:32:01;3.30;;;1.08;;
34369;SDS011;20635;55.812;37.560;2023-02-28T11:34:30;1.23;;;1.00;;
34369;SDS011;20635;55.812;37.560;2023-02-28T11:36:57;1.65;;;1.00;;
34369;SDS011;20635;55.812;37.560;2023-02-28T11:39:25;3.28;;;1.55;;
34369;SDS011;20635;55.812;37.560;2023-02-28T11:41:59;0.80;;;0.77;;
34369;SDS011;20635;55.812;37.560;2023-02-28T11:47:26;2.05;;;1.20;;
34369;SDS011;20635;55.812;37.560;2023-02-28T11:53:05;2.00;;;1.17;;
34369;SDS011;20635;55.812;37.560;2023-02-28T12:01:32;1.60;;;1.07;;
34369;SDS011;20635;55.812;37.560;2023-02-28T12:06:32;1.20;;;0.75;;
34369;SDS011;20635;55.812;37.560;2023-02-28T12:09:28;3.63;;;1.02;;
34369;SDS011;20635;55.812;37.560;2023-02-28T12:12:38;2.65;;;0.98;;
34369;SDS011;20635;55.812;37.560;2023-02-28T12:29:21;1.30;;;0.93;;
34369;SDS011;20635;55.812;37.560;2023-02-28T12:31:51;0.80;;;0.80;;
34369;SDS011;20635;55.812;37.560;2023-02-28T12:34:37;2.65;;;0.90;;
34369;SDS011;20635;55.812;37.560;2023-02-28T12:37:08;1.42;;;1.00;;
34369;SDS011;20635;55.812;37.560;2023-02-28T12:39:50;1.88;;;1.00;;
34369;SDS011;20635;55.812;37.560;2023-02-28T12:42:26;1.85;;;0.90;;
34369;SDS011;20635;55.812;37.560;2023-02-28T12:44:59;1.38;;;0.90;;
34369;SDS011;20635;55.812;37.560;2023-02-28T12:47:29;1.65;;;1.15;;
34369;SDS011;20635;55.812;37.560;2023-02-28T12:49:59;1.25;;;1.13;;
34369;SDS011;20635;55.812;37.560;2023-02-28T13:00:38;1.45;;;1.00;;
34369;SDS011;20635;55.812;37.560;2023-02-28T13:09:15;2.08;;;1.15;;
34369;SDS011;20635;55.812;37.560;2023-02-28T13:11:43;1.30;;;0.88;;
34369;SDS011;20635;55.812;37.560;2023-02-28T13:14:30;2.13;;;0.90;;
34369;SDS011;20635;55.812;37.560;2023-02-28T13:22:13;1.10;;;1.00;;
34369;SDS011;20635;55.812;37.560;2023-02-28T13:25:01;0.80;;;0.80;;
34369;SDS011;20635;55.812;37.560;2023-02-28T13:27:37;0.90;;;0.90;;
34369;SDS011;20635;55.812;37.560;2023-02-28T13:33:28;1.27;;;1.00;;
34369;SDS011;20635;55.812;37.560;2023-02-28T13:46:25;1.10;;;0.93;;
34369;SDS011;20635;55.812;37.560;2023-02-28T13:48:51;0.80;;;0.80;;
34369;SDS011;20635;55.812;37.560;2023-02-28T13:54:06;0.98;;;0.70;;
34369;SDS011;20635;55.812;37.560;2023-02-28T13:56:49;1.48;;;1.02;;
34369;SDS011;20635;55.812;37.560;2023-02-28T14:05:20;0.80;;;0.80;;
34369;SDS011;20635;55.812;37.560;2023-02-28T14:07:54;0.80;;;0.80;;
34369;SDS011;20635;55.812;37.560;2023-02-28T14:10:25;0.75;;;0.75;;
34369;SDS011;20635;55.812;37.560;2023-02-28T14:18:03;2.22;;;1.13;;
34369;SDS011;20635;55.812;37.560;2023-02-28T14:20:39;1.55;;;1.40;;
34369;SDS011;20635;55.812;37.560;2023-02-28T14:23:12;0.93;;;0.70;;
34369;SDS011;20635;55.812;37.560;2023-02-28T14:31:43;1.55;;;1.08;;
34369;SDS011;20635;55.812;37.560;2023-02-28T14:36:52;1.30;;;1.20;;
34369;SDS011;20635;55.812;37.560;2023-02-28T14:39:21;2.05;;;1.10;;
34369;SDS011;20635;55.812;37.560;2023-02-28T14:41:49;1.83;;;1.08;;
34369;SDS011;20635;55.812;37.560;2023-02-28T14:44:16;1.05;;;0.95;;
34369;SDS011;20635;55.812;37.560;2023-02-28T14:46:45;1.40;;;1.20;;
34369;SDS011;20635;55.812;37.560;2023-02-28T14:49:34;1.08;;;0.98;;
34369;SDS011;20635;55.812;37.560;2023-02-28T14:52:09;1.00;;;0.90;;
34369;SDS011;20635;55.812;37.560;2023-02-28T14:54:40;1.30;;;1.00;;
34369;SDS011;20635;55.812;37.560;2023-02-28T14:57:20;4.57;;;1.45;;
34369;SDS011;20635;55.812;37.560;2023-02-28T15:00:07;1.40;;;1.00;;
34369;SDS011;20635;55.812;37.560;2023-02-28T15:02:41;1.77;;;1.08;;
34369;SDS011;20635;55.812;37.560;2023-02-28T15:05:20;0.70;;;0.70;;
34369;SDS011;20635;55.812;37.560;2023-02-28T15:08:06;0.80;;;0.80;;
34369;SDS011;20635;55.812;37.560;2023-02-28T15:10:44;1.30;;;1.10;;
34369;SDS011;20635;55.812;37.560;2023-02-28T15:13:16;1.67;;;0.98;;
34369;SDS011;20635;55.812;37.560;2023-02-28T15:15:54;2.08;;;1.00;;
34369;SDS011;20635;55.812;37.560;2023-02-28T15:18:22;0.90;;;0.90;;
34369;SDS011;20635;55.812;37.560;2023-02-28T15:20:53;1.63;;;1.13;;
34369;SDS011;20635;55.812;37.560;2023-02-28T15:23:20;1.27;;;0.88;;
34369;SDS011;20635;55.812;37.560;2023-02-28T15:25:47;0.95;;;0.90;;
34369;SDS011;20635;55.812;37.560;2023-02-28T15:28:16;1.65;;;0.90;;
34369;SDS011;20635;55.812;37.560;2023-02-28T15:30:53;0.90;;;0.90;;
34369;SDS011;20635;55.812;37.560;2023-02-28T15:33:27;1.20;;;0.93;;
34369;SDS011;20635;55.812;37.560;2023-02-28T15:36:03;1.30;;;1.05;;
34369;SDS011;20635;55.812;37.560;2023-02-28T15:38:33;1.17;;;1.02;;
34369;SDS011;20635;55.812;37.560;2023-02-28T15:41:00;0.95;;;0.93;;
34369;SDS011;20635;55.812;37.560;2023-02-28T15:43:27;1.15;;;1.05;;
34369;SDS011;20635;55.812;37.560;2023-02-28T15:45:59;1.55;;;1.10;;
34369;SDS011;20635;55.812;37.560;2023-02-28T15:48:37;1.08;;;0.93;;
34369;SDS011;20635;55.812;37.560;2023-02-28T15:54:20;1.77;;;1.25;;
34369;SDS011;20635;55.812;37.560;2023-02-28T15:56:44;0.93;;;0.93;;
34369;SDS011;20635;55.812;37.560;2023-02-28T15:59:16;1.02;;;0.93;;
34369;SDS011;20635;55.812;37.560;2023-02-28T16:01:45;1.52;;;1.10;;
34369;SDS011;20635;55.812;37.560;2023-02-28T16:04:15;1.27;;;1.02;;
34369;SDS011;20635;55.812;37.560;2023-02-28T16:09:25;1.58;;;1.17;;
34369;SDS011;20635;55.812;37.560;2023-02-28T16:11:53;1.00;;;1.00;;
34369;SDS011;20635;55.812;37.560;2023-02-28T16:14:25;1.42;;;1.13;;
34369;SDS011;20635;55.812;37.560;2023-02-28T16:16:56;2.10;;;1.00;;
34369;SDS011;20635;55.812;37.560;2023-02-28T16:19:27;0.80;;;0.80;;
34369;SDS011;20635;55.812;37.560;2023-02-28T16:21:54;1.00;;;0.90;;
34369;SDS011;20635;55.812;37.560;2023-02-28T16:24:20;1.20;;;1.10;;
34369;SDS011;20635;55.812;37.560;2023-02-28T16:26:47;1.27;;;0.95;;
34369;SDS011;20635;55.812;37.560;2023-02-28T16:29:21;1.95;;;0.93;;
34369;SDS011;20635;55.812;37.560;2023-02-28T16:31:53;0.80;;;0.80;;
34369;SDS011;20635;55.812;37.560;2023-02-28T16:34:20;1.00;;;0.90;;
34369;SDS011;20635;55.812;37.560;2023-02-28T16:36:47;0.75;;;0.75;;
34369;SDS011;20635;55.812;37.560;2023-02-28T16:39:14;0.95;;;0.90;;
34369;SDS011;20635;55.812;37.560;2023-02-28T16:41:44;1.02;;;0.93;;
34369;SDS011;20635;55.812;37.560;2023-02-28T16:44:21;1.00;;;0.90;;
34369;SDS011;20635;55.812;37.560;2023-02-28T16:47:00;2.08;;;0.88;;
34369;SDS011;20635;55.812;37.560;2023-02-28T16:49:27;0.90;;;0.90;;
34369;SDS011;20635;55.812;37.560;2023-02-28T16:51:53;0.70;;;0.70;;
34369;SDS011;20635;55.812;37.560;2023-02-28T16:54:19;0.80;;;0.80;;
34369;SDS011;20635;55.812;37.560;2023-02-28T16:56:46;1.10;;;1.00;;
34369;SDS011;20635;55.812;37.560;2023-02-28T16:59:13;0.80;;;0.80;;
34369;SDS011;20635;55.812;37.560;2023-02-28T17:01:43;0.95;;;0.80;;
34369;SDS011;20635;55.812;37.560;2023-02-28T17:04:10;0.95;;;0.90;;
34369;SDS011;20635;55.812;37.560;2023-02-28T17:06:37;1.60;;;0.90;;
34369;SDS011;20635;55.812;37.560;2023-02-28T17:09:03;0.85;;;0.85;;
34369;SDS011;20635;55.812;37.560;2023-02-28T17:11:29;1.60;;;0.80;;
34369;SDS011;20635;55.812;37.560;2023-02-28T17:13:55;1.83;;;0.90;;
34369;SDS011;20635;55.812;37.560;2023-02-28T17:18:50;0.98;;;0.80;;
34369;SDS011;20635;55.812;37.560;2023-02-28T17:21:16;0.80;;;0.80;;
34369;SDS011;20635;55.812;37.560;2023-02-28T17:23:42;0.82;;;0.82;;
34369;SDS011;20635;55.812;37.560;2023-02-28T17:26:15;0.80;;;0.80;;
34369;SDS011;20635;55.812;37.560;2023-02-28T17:28:45;0.77;;;0.77;;
34369;SDS011;20635;55.812;37.560;2023-02-28T17:31:12;0.77;;;0.77;;
34369;SDS011;20635;55.812;37.560;2023-02-28T17:33:38;0.88;;;0.88;;